Terminal Aerodrome Forecast
Issued by NWS

Current Version | Previous Version | Text Only | Print | Product List | Glossary On
Versions: 1 2 3 4 5 6 7 8 9 10 11 12 13 14
000
FTAK31 PAFA 290538
TAFAMC
TAF
PAMC 290538Z 2906/3006 10009KT P6SM FEW080 BKN200
     FM291200 VRB04KT P6SM SCT080 BKN200
     FM291800 16005KT P6SM BKN060 BKN120=

USA.gov is the U.S. government's official web portal to all federal, state and local government web resources and services.